createdAt,value
2018-06-23T00:01:06.759Z,15.40
2018-06-23T00:03:34.974Z,15.40
2018-06-23T00:06:03.657Z,15.30
2018-06-23T00:08:32.325Z,15.30
2018-06-23T00:11:00.604Z,15.30
2018-06-23T00:13:28.920Z,15.30
2018-06-23T00:15:57.135Z,15.30
2018-06-23T00:18:25.479Z,15.30
2018-06-23T00:20:53.719Z,15.30
2018-06-23T00:23:22.204Z,15.30
2018-06-23T00:25:55.870Z,15.30
2018-06-23T00:28:24.196Z,15.30
2018-06-23T00:30:52.456Z,15.20
2018-06-23T00:33:20.764Z,15.20
2018-06-23T00:35:48.970Z,15.10
2018-06-23T00:38:17.184Z,15.10
2018-06-23T00:40:45.454Z,15.00
2018-06-23T00:43:13.642Z,15.00
2018-06-23T00:45:41.892Z,15.00
2018-06-23T00:48:10.570Z,15.00
2018-06-23T00:50:38.886Z,15.00
2018-06-23T00:53:07.157Z,14.90
2018-06-23T00:55:35.494Z,14.80
2018-06-23T00:58:03.701Z,14.70
2018-06-23T01:00:31.972Z,14.70
2018-06-23T01:03:00.481Z,14.70
2018-06-23T01:05:28.840Z,14.60
2018-06-23T01:07:57.129Z,14.50
2018-06-23T01:10:25.286Z,14.50
2018-06-23T01:12:53.516Z,14.50
2018-06-23T01:15:21.723Z,14.50
2018-06-23T01:17:50.086Z,14.40
2018-06-23T01:20:18.263Z,14.50
2018-06-23T01:22:46.486Z,14.50
2018-06-23T01:25:14.725Z,14.50
2018-06-23T01:27:43.019Z,14.60
2018-06-23T01:30:11.467Z,14.60
2018-06-23T01:32:39.710Z,14.60
2018-06-23T01:35:07.995Z,14.60
2018-06-23T01:37:36.339Z,14.50
2018-06-23T01:40:04.706Z,14.40
2018-06-23T01:42:32.995Z,14.30
2018-06-23T01:45:01.289Z,14.30
2018-06-23T01:47:29.544Z,14.40
2018-06-23T01:49:57.802Z,14.50
2018-06-23T01:52:26.115Z,14.60
2018-06-23T01:54:54.385Z,14.70
2018-06-23T01:57:22.867Z,14.70
2018-06-23T01:59:51.210Z,14.70
2018-06-23T02:02:19.465Z,14.70
2018-06-23T02:04:47.768Z,14.70
2018-06-23T02:07:16.032Z,14.70
2018-06-23T02:09:44.614Z,14.60
2018-06-23T02:12:12.958Z,14.60
2018-06-23T02:14:46.581Z,14.60
2018-06-23T02:17:20.159Z,14.60
2018-06-23T02:19:53.896Z,14.60
2018-06-23T02:22:27.782Z,14.60
2018-06-23T02:25:01.454Z,14.50
2018-06-23T02:27:34.984Z,14.50
2018-06-23T02:30:08.841Z,14.50
2018-06-23T02:32:47.299Z,14.50
2018-06-23T02:35:15.553Z,14.50
2018-06-23T02:37:43.837Z,14.50
2018-06-23T02:40:12.121Z,14.60
2018-06-23T02:42:40.377Z,14.60
2018-06-23T02:45:08.604Z,14.60
2018-06-23T02:47:37.188Z,14.60
2018-06-23T02:50:05.405Z,14.60
2018-06-23T02:52:40.301Z,14.50
2018-06-23T02:55:08.709Z,14.50
2018-06-23T02:57:36.934Z,14.50
2018-06-23T03:00:05.565Z,14.50
2018-06-23T03:02:33.793Z,14.40
2018-06-23T03:05:02.413Z,14.40
2018-06-23T03:07:30.985Z,14.40
2018-06-23T03:09:59.330Z,14.40
2018-06-23T03:12:27.579Z,14.50
2018-06-23T03:14:55.857Z,14.50
2018-06-23T03:17:24.674Z,14.50
2018-06-23T03:19:52.972Z,14.40
2018-06-23T03:22:21.536Z,14.40
2018-06-23T03:24:50.059Z,14.40
2018-06-23T03:27:18.341Z,14.40
2018-06-23T03:29:46.607Z,14.40
2018-06-23T03:32:15.169Z,14.50
2018-06-23T03:34:43.494Z,14.50
2018-06-23T03:37:11.744Z,14.50
2018-06-23T03:42:08.255Z,14.60
2018-06-23T03:44:36.498Z,14.60
2018-06-23T03:47:05.862Z,14.60
2018-06-23T03:49:34.103Z,14.70
2018-06-23T03:52:02.416Z,14.70
2018-06-23T03:54:30.688Z,14.80
2018-06-23T03:56:58.935Z,14.80
2018-06-23T03:59:27.228Z,14.80
2018-06-23T04:01:55.376Z,14.90
2018-06-23T04:04:24.204Z,15.00
2018-06-23T04:06:52.444Z,15.10
2018-06-23T04:09:20.762Z,15.10
2018-06-23T04:11:48.990Z,15.10
2018-06-23T04:14:17.371Z,15.20
2018-06-23T04:16:45.769Z,15.30
2018-06-23T04:19:14.019Z,15.40
2018-06-23T04:21:42.451Z,15.40
2018-06-23T04:24:10.738Z,15.40
2018-06-23T04:26:39.068Z,15.60
2018-06-23T04:29:07.642Z,15.70
2018-06-23T04:31:36.836Z,15.80
2018-06-23T04:34:05.477Z,16.00
2018-06-23T04:36:34.208Z,16.10
2018-06-23T04:39:02.534Z,16.30
2018-06-23T04:41:31.038Z,16.70
2018-06-23T04:43:59.380Z,16.70
2018-06-23T04:46:27.660Z,16.70
2018-06-23T04:48:56.001Z,16.60
2018-06-23T04:51:24.318Z,16.60
2018-06-23T04:53:52.588Z,16.70
2018-06-23T04:56:20.918Z,16.90
2018-06-23T04:58:49.208Z,16.80
2018-06-23T05:01:17.424Z,16.70
2018-06-23T05:03:45.764Z,16.80
2018-06-23T05:06:14.176Z,16.90
2018-06-23T05:11:10.594Z,16.70
2018-06-23T05:13:38.850Z,16.90
2018-06-23T05:16:07.069Z,17.40
2018-06-23T05:18:35.277Z,17.60
2018-06-23T05:21:03.698Z,17.50
2018-06-23T05:23:32.002Z,17.30
2018-06-23T05:26:00.973Z,17.10
2018-06-23T05:28:29.290Z,17.20
2018-06-23T05:30:57.642Z,17.50
2018-06-23T05:33:26.009Z,18.50
2018-06-23T05:35:54.573Z,20.00
2018-06-23T05:38:23.091Z,22.00
2018-06-23T05:40:51.508Z,24.70
2018-06-23T05:43:19.848Z,27.20
2018-06-23T05:45:48.222Z,26.60
2018-06-23T05:48:16.491Z,25.50
2018-06-23T05:50:44.827Z,24.50
2018-06-23T05:55:41.301Z,23.00
2018-06-23T05:58:09.550Z,22.70
2018-06-23T06:00:38.166Z,22.60
2018-06-23T06:03:06.409Z,22.20
2018-06-23T06:05:34.842Z,21.60
2018-06-23T06:08:03.162Z,21.00
2018-06-23T06:10:31.421Z,20.50
2018-06-23T06:12:59.770Z,20.00
2018-06-23T06:15:28.099Z,19.70
2018-06-23T06:17:56.668Z,19.40
2018-06-23T06:20:24.919Z,19.20
2018-06-23T06:22:53.246Z,18.90
2018-06-23T06:25:22.364Z,18.80
2018-06-23T06:27:50.743Z,18.60
2018-06-23T06:30:18.985Z,18.60
2018-06-23T06:32:47.262Z,18.80
2018-06-23T06:35:15.541Z,18.70
2018-06-23T06:37:43.953Z,18.60
2018-06-23T06:40:12.395Z,18.40
2018-06-23T06:42:40.704Z,18.10
2018-06-23T06:45:08.955Z,17.80
2018-06-23T06:47:37.229Z,17.90
2018-06-23T06:50:05.612Z,18.00
2018-06-23T06:52:33.984Z,18.20
2018-06-23T06:55:02.727Z,17.80
2018-06-23T06:57:31.220Z,17.30
2018-06-23T06:59:59.906Z,17.00
2018-06-23T07:02:28.674Z,16.70
2018-06-23T07:04:56.987Z,16.60
2018-06-23T07:07:26.689Z,16.60
2018-06-23T07:09:55.145Z,16.50
2018-06-23T07:12:24.152Z,16.50
2018-06-23T07:14:52.485Z,16.90
2018-06-23T07:17:21.143Z,17.40
2018-06-23T07:19:49.434Z,17.90
2018-06-23T07:24:46.314Z,19.20
2018-06-23T07:27:15.196Z,19.80
2018-06-23T07:29:43.516Z,19.70
2018-06-23T07:32:11.980Z,19.60
2018-06-23T07:34:40.915Z,19.30
2018-06-23T07:37:09.329Z,19.10
2018-06-23T07:39:37.647Z,19.70
2018-06-23T07:42:06.065Z,21.30
2018-06-23T07:44:34.426Z,22.00
2018-06-23T07:47:03.020Z,22.60
2018-06-23T07:49:31.776Z,24.00
2018-06-23T07:52:00.049Z,24.80
2018-06-23T07:54:28.763Z,25.40
2018-06-23T07:56:57.181Z,25.40
2018-06-23T07:59:25.898Z,24.90
2018-06-23T08:01:54.697Z,24.60
2018-06-23T08:04:23.141Z,24.50
2018-06-23T08:06:51.545Z,24.00
2018-06-23T08:09:20.098Z,22.80
2018-06-23T08:11:48.666Z,22.10
2018-06-23T08:14:16.956Z,21.70
2018-06-23T08:16:45.234Z,21.40
2018-06-23T08:19:13.553Z,21.20
2018-06-23T08:21:42.496Z,20.90
2018-06-23T08:24:11.246Z,20.60
2018-06-23T08:26:39.910Z,20.40
2018-06-23T08:29:08.186Z,20.30
2018-06-23T08:31:39.081Z,20.20
2018-06-23T08:34:07.390Z,20.00
2018-06-23T08:36:35.982Z,20.10
2018-06-23T08:39:06.299Z,20.30
2018-06-23T08:41:34.683Z,20.20
2018-06-23T08:44:03.049Z,20.40
2018-06-23T08:46:31.683Z,20.20
2018-06-23T08:49:00.409Z,20.10
2018-06-23T08:51:29.208Z,20.10
2018-06-23T08:53:57.594Z,20.30
2018-06-23T08:56:26.047Z,20.60
2018-06-23T08:58:54.486Z,20.60
2018-06-23T09:01:22.766Z,20.30
2018-06-23T09:03:50.968Z,20.40
2018-06-23T09:06:19.379Z,20.50
2018-06-23T09:08:49.051Z,20.70
2018-06-23T09:11:17.810Z,20.90
2018-06-23T09:13:46.400Z,21.40
2018-06-23T09:16:14.989Z,21.90
2018-06-23T09:18:43.256Z,22.00
2018-06-23T09:21:11.933Z,22.00
2018-06-23T09:23:40.304Z,22.10
2018-06-23T09:26:08.655Z,22.50
2018-06-23T09:28:37.231Z,22.60
2018-06-23T09:31:07.084Z,22.70
2018-06-23T09:33:35.488Z,22.60
2018-06-23T09:36:04.007Z,22.60
2018-06-23T09:38:32.445Z,22.30
2018-06-23T09:41:01.176Z,22.40
2018-06-23T09:43:30.133Z,22.30
2018-06-23T09:45:58.563Z,22.40
2018-06-23T09:48:27.178Z,22.60
2018-06-23T09:50:55.456Z,22.60
2018-06-23T09:53:23.969Z,22.40
2018-06-23T09:55:52.365Z,22.20
2018-06-23T09:58:20.732Z,22.20
2018-06-23T10:00:49.036Z,22.20
2018-06-23T10:03:17.263Z,22.00
2018-06-23T10:05:45.594Z,22.30
2018-06-23T10:08:14.305Z,22.70
2018-06-23T10:10:42.586Z,23.50
2018-06-23T10:13:10.847Z,24.00
2018-06-23T10:15:39.093Z,24.30
2018-06-23T10:18:07.346Z,24.70
2018-06-23T10:20:36.336Z,25.10
2018-06-23T10:23:04.755Z,25.30
2018-06-23T10:25:33.187Z,25.60
2018-06-23T10:28:01.464Z,25.40
2018-06-23T10:30:30.083Z,25.60
2018-06-23T10:32:58.644Z,25.20
2018-06-23T10:35:27.022Z,25.00
2018-06-23T10:37:55.425Z,24.70
2018-06-23T10:40:23.927Z,24.80
2018-06-23T10:42:52.251Z,24.80
2018-06-23T10:45:20.734Z,24.70
2018-06-23T10:47:49.267Z,24.50
2018-06-23T10:50:17.600Z,24.30
2018-06-23T10:52:46.024Z,24.20
2018-06-23T10:55:14.791Z,24.50
2018-06-23T11:00:11.085Z,24.80
2018-06-23T11:02:39.369Z,25.00
2018-06-23T11:05:07.931Z,25.10
2018-06-23T11:07:36.297Z,25.20
2018-06-23T11:10:04.688Z,25.20
2018-06-23T11:12:33.325Z,24.80
2018-06-23T11:15:02.052Z,24.70
2018-06-23T11:17:30.882Z,24.50
2018-06-23T11:19:59.270Z,24.40
2018-06-23T11:24:56.488Z,24.60
2018-06-23T11:27:24.803Z,24.80
2018-06-23T11:29:53.604Z,25.10
2018-06-23T11:32:21.866Z,25.10
2018-06-23T11:34:50.119Z,25.20
2018-06-23T11:37:18.414Z,25.50
2018-06-23T11:39:46.747Z,25.30
2018-06-23T11:42:15.068Z,25.10
2018-06-23T11:44:43.686Z,25.20
2018-06-23T11:47:11.931Z,25.20
2018-06-23T11:49:41.212Z,24.90
2018-06-23T11:52:09.750Z,24.90
2018-06-23T11:54:38.242Z,24.70
2018-06-23T11:57:06.436Z,24.70
2018-06-23T11:59:34.758Z,24.60
2018-06-23T12:02:02.960Z,24.80
2018-06-23T12:04:31.412Z,24.80
2018-06-23T12:06:59.900Z,24.80
2018-06-23T12:09:28.266Z,25.20
2018-06-23T12:11:56.511Z,25.20
2018-06-23T12:14:24.830Z,25.00
2018-06-23T12:16:53.154Z,24.60
2018-06-23T12:19:21.596Z,24.30
2018-06-23T12:21:49.883Z,24.00
2018-06-23T12:24:18.111Z,24.00
2018-06-23T12:26:46.402Z,24.10
2018-06-23T12:29:15.004Z,24.50
2018-06-23T12:31:43.681Z,24.60
2018-06-23T12:34:11.927Z,24.70
2018-06-23T12:36:40.453Z,24.60
2018-06-23T12:39:10.099Z,24.50
2018-06-23T12:41:38.647Z,24.80
2018-06-23T12:44:07.170Z,25.00
2018-06-23T12:46:35.442Z,25.30
2018-06-23T12:49:03.778Z,25.80
2018-06-23T12:51:32.262Z,26.20
2018-06-23T12:54:00.594Z,26.60
2018-06-23T12:56:28.818Z,26.80
2018-06-23T12:58:57.128Z,26.90
2018-06-23T13:01:25.340Z,26.70
2018-06-23T13:03:53.594Z,26.00
2018-06-23T13:06:22.074Z,25.20
2018-06-23T13:08:50.945Z,24.80
2018-06-23T13:11:19.327Z,24.30
2018-06-23T13:13:48.507Z,23.70
2018-06-23T13:16:17.364Z,23.00
2018-06-23T13:18:46.177Z,22.50
2018-06-23T13:21:14.602Z,22.10
2018-06-23T13:23:43.261Z,21.90
2018-06-23T13:26:11.681Z,22.00
2018-06-23T13:28:40.030Z,22.40
2018-06-23T13:31:08.324Z,22.70
2018-06-23T13:33:36.912Z,22.80
2018-06-23T13:36:05.292Z,22.90
2018-06-23T13:38:33.762Z,23.20
2018-06-23T13:41:04.451Z,23.60
2018-06-23T13:43:33.285Z,24.00
2018-06-23T13:46:01.621Z,24.10
2018-06-23T13:48:30.071Z,23.80
2018-06-23T13:50:58.573Z,23.30
2018-06-23T13:53:28.409Z,23.10
2018-06-23T13:55:56.960Z,23.20
2018-06-23T13:58:25.369Z,23.40
2018-06-23T14:00:54.173Z,23.70
2018-06-23T14:03:25.033Z,24.00
2018-06-23T14:05:53.867Z,24.10
2018-06-23T14:08:22.320Z,24.10
2018-06-23T14:10:57.045Z,24.30
2018-06-23T14:13:25.398Z,24.20
2018-06-23T14:15:53.617Z,24.10
2018-06-23T14:18:21.952Z,23.80
2018-06-23T14:23:18.376Z,23.10
2018-06-23T14:25:46.741Z,22.90
2018-06-23T14:28:15.174Z,22.80
2018-06-23T14:30:43.534Z,23.10
2018-06-23T14:33:11.969Z,23.50
2018-06-23T14:35:40.521Z,23.80
2018-06-23T14:38:08.881Z,24.10
2018-06-23T14:40:37.182Z,24.30
2018-06-23T14:43:05.429Z,24.50
2018-06-23T14:45:34.533Z,24.60
2018-06-23T14:48:03.238Z,24.40
2018-06-23T14:50:31.576Z,24.00
2018-06-23T14:52:59.936Z,23.40
2018-06-23T14:55:28.295Z,22.80
2018-06-23T14:57:56.510Z,22.20
2018-06-23T15:00:24.940Z,21.20
2018-06-23T15:02:53.231Z,20.50
2018-06-23T15:05:21.768Z,20.10
2018-06-23T15:07:50.216Z,19.70
2018-06-23T15:13:03.554Z,19.60
2018-06-23T15:15:31.801Z,19.60
2018-06-23T15:18:01.071Z,19.50
2018-06-23T15:20:29.346Z,19.30
2018-06-23T15:22:57.570Z,19.20
2018-06-23T15:25:25.942Z,19.00
2018-06-23T15:27:54.325Z,18.80
2018-06-23T15:30:22.917Z,18.70
2018-06-23T15:32:51.236Z,18.80
2018-06-23T15:35:19.496Z,18.80
2018-06-23T15:37:47.796Z,18.80
2018-06-23T15:40:16.806Z,18.90
2018-06-23T15:42:45.420Z,19.10
2018-06-23T15:45:14.393Z,19.20
2018-06-23T15:47:43.242Z,19.30
2018-06-23T15:50:11.888Z,19.40
2018-06-23T15:52:40.221Z,19.50
2018-06-23T15:55:08.579Z,19.60
2018-06-23T15:57:36.870Z,19.60
2018-06-23T16:00:05.158Z,19.70
2018-06-23T16:02:33.469Z,19.80
2018-06-23T16:05:03.379Z,20.00
2018-06-23T16:07:32.536Z,20.10
2018-06-23T16:10:01.236Z,20.20
2018-06-23T16:12:30.117Z,20.50
2018-06-23T16:14:58.476Z,20.70
2018-06-23T16:17:27.071Z,21.00
2018-06-23T16:19:55.324Z,21.10
2018-06-23T16:22:23.591Z,21.20
2018-06-23T16:24:52.011Z,21.10
2018-06-23T16:27:20.482Z,21.00
2018-06-23T16:29:48.869Z,20.90
2018-06-23T16:32:17.206Z,20.70
2018-06-23T16:34:46.450Z,20.50
2018-06-23T16:37:15.825Z,20.60
2018-06-23T16:39:44.202Z,20.50
2018-06-23T16:42:12.818Z,20.40
2018-06-23T16:44:41.351Z,20.20
2018-06-23T16:47:10.610Z,20.00
2018-06-23T16:49:39.007Z,19.80
2018-06-23T16:52:07.285Z,19.60
2018-06-23T16:54:35.710Z,19.40
2018-06-23T16:57:04.166Z,19.20
2018-06-23T16:59:32.705Z,19.00
2018-06-23T17:02:01.190Z,18.90
2018-06-23T17:04:29.665Z,18.80
2018-06-23T17:06:58.249Z,18.80
2018-06-23T17:09:26.773Z,18.90
2018-06-23T17:11:55.181Z,18.90
2018-06-23T17:14:24.005Z,19.00
2018-06-23T17:16:52.659Z,19.10
2018-06-23T17:19:21.177Z,19.30
2018-06-23T17:21:49.556Z,19.30
2018-06-23T17:24:18.042Z,19.20
2018-06-23T17:26:46.405Z,19.30
2018-06-23T17:29:15.096Z,19.40
2018-06-23T17:31:43.420Z,19.20
2018-06-23T17:34:11.731Z,19.20
2018-06-23T17:36:40.010Z,19.10
2018-06-23T17:39:09.515Z,19.00
2018-06-23T17:41:37.814Z,18.80
2018-06-23T17:44:06.089Z,18.60
2018-06-23T17:46:34.531Z,18.50
2018-06-23T17:49:02.911Z,18.50
2018-06-23T17:51:31.463Z,18.40
2018-06-23T17:54:00.057Z,18.40
2018-06-23T17:56:28.333Z,18.30
2018-06-23T17:58:57.157Z,18.20
2018-06-23T18:01:25.431Z,18.20
2018-06-23T18:03:53.802Z,18.10
2018-06-23T18:06:22.193Z,18.00
2018-06-23T18:08:50.530Z,17.90
2018-06-23T18:11:19.662Z,17.90
2018-06-23T18:13:48.144Z,17.80
2018-06-23T18:16:17.083Z,17.90
2018-06-23T18:18:45.359Z,17.90
2018-06-23T18:21:14.591Z,17.90
2018-06-23T18:23:43.479Z,17.80
2018-06-23T18:26:11.838Z,17.70
2018-06-23T18:28:40.101Z,17.60
2018-06-23T18:31:08.421Z,17.50
2018-06-23T18:33:36.740Z,17.50
2018-06-23T18:36:05.111Z,17.60
2018-06-23T18:38:33.435Z,17.60
2018-06-23T18:41:01.861Z,17.50
2018-06-23T18:43:30.320Z,17.50
2018-06-23T18:45:58.896Z,17.40
2018-06-23T18:48:27.429Z,17.20
2018-06-23T18:50:56.030Z,17.20
2018-06-23T18:53:24.557Z,17.10
2018-06-23T18:55:53.305Z,17.10
2018-06-23T18:58:21.737Z,17.00
2018-06-23T19:00:51.454Z,17.00
2018-06-23T19:03:19.946Z,17.00
2018-06-23T19:05:48.869Z,17.00
2018-06-23T19:08:17.204Z,17.00
2018-06-23T19:10:45.519Z,17.00
2018-06-23T19:13:13.898Z,17.00
2018-06-23T19:15:42.304Z,17.00
2018-06-23T19:18:10.922Z,17.00
2018-06-23T19:20:39.495Z,16.90
2018-06-23T19:23:07.964Z,16.90
2018-06-23T19:25:36.286Z,16.90
2018-06-23T19:28:04.555Z,16.90
2018-06-23T19:30:33.031Z,16.80
2018-06-23T19:33:01.591Z,16.70
2018-06-23T19:35:30.381Z,16.60
2018-06-23T19:37:58.771Z,16.60
2018-06-23T19:40:27.082Z,16.50
2018-06-23T19:42:55.726Z,16.60
2018-06-23T19:45:24.237Z,16.50
2018-06-23T19:47:52.775Z,16.40
2018-06-23T19:50:21.334Z,16.40
2018-06-23T19:52:49.889Z,16.30
2018-06-23T19:55:18.585Z,16.30
2018-06-23T19:57:46.953Z,16.20
2018-06-23T20:00:15.366Z,16.10
2018-06-23T20:02:43.661Z,16.10
2018-06-23T20:05:11.946Z,16.00
2018-06-23T20:07:40.702Z,16.00
2018-06-23T20:10:09.397Z,16.00
2018-06-23T20:12:37.698Z,15.90
2018-06-23T20:15:06.138Z,15.80
2018-06-23T20:17:34.842Z,15.80
2018-06-23T20:20:03.322Z,15.80
2018-06-23T20:22:31.660Z,15.90
2018-06-23T20:25:00.269Z,15.80
2018-06-23T20:27:28.770Z,15.80
2018-06-23T20:29:57.489Z,15.80
2018-06-23T20:32:25.858Z,15.80
2018-06-23T20:34:54.353Z,15.80
2018-06-23T20:37:22.752Z,15.80
2018-06-23T20:39:52.574Z,15.80
2018-06-23T20:42:21.090Z,15.80
2018-06-23T20:44:49.476Z,15.70
2018-06-23T20:47:17.786Z,15.80
2018-06-23T20:49:46.053Z,15.80
2018-06-23T20:52:14.524Z,15.80
2018-06-23T20:54:42.932Z,15.70
2018-06-23T20:57:11.337Z,15.60
2018-06-23T20:59:39.955Z,15.60
2018-06-23T21:02:08.600Z,15.40
2018-06-23T21:04:37.049Z,15.40
2018-06-23T21:07:05.574Z,15.40
2018-06-23T21:09:33.842Z,15.40
2018-06-23T21:12:02.183Z,15.40
2018-06-23T21:14:30.436Z,15.50
2018-06-23T21:16:58.711Z,15.40
2018-06-23T21:19:26.960Z,15.40
2018-06-23T21:21:55.771Z,15.40
2018-06-23T21:24:24.415Z,15.40
2018-06-23T21:26:52.916Z,15.50
2018-06-23T21:29:21.668Z,15.50
2018-06-23T21:31:49.973Z,15.40
2018-06-23T21:34:18.158Z,15.30
2018-06-23T21:36:46.559Z,15.30
2018-06-23T21:39:14.836Z,15.30
2018-06-23T21:41:43.242Z,15.30
2018-06-23T21:44:11.469Z,15.30
2018-06-23T21:46:39.873Z,15.30
2018-06-23T21:49:08.350Z,15.30
2018-06-23T21:51:36.836Z,15.30
2018-06-23T21:54:05.174Z,15.30
2018-06-23T21:56:33.453Z,15.30
2018-06-23T21:59:02.689Z,15.30
2018-06-23T22:01:30.921Z,15.30
2018-06-23T22:03:59.377Z,15.30
2018-06-23T22:06:27.626Z,15.30
2018-06-23T22:08:56.850Z,15.30
2018-06-23T22:11:25.188Z,15.30
2018-06-23T22:13:54.010Z,15.30
2018-06-23T22:16:22.308Z,15.30
2018-06-23T22:18:50.742Z,15.30
2018-06-23T22:21:19.135Z,15.20
2018-06-23T22:23:47.452Z,15.20
2018-06-23T22:26:15.971Z,15.10
2018-06-23T22:28:44.212Z,15.10
2018-06-23T22:31:12.439Z,15.10
2018-06-23T22:33:41.205Z,15.00
2018-06-23T22:36:09.451Z,15.00
2018-06-23T22:38:37.733Z,15.00
2018-06-23T22:41:05.943Z,14.90
2018-06-23T22:43:34.435Z,14.90
2018-06-23T22:46:03.821Z,15.00
2018-06-23T22:48:32.010Z,15.00
2018-06-23T22:51:00.407Z,15.00
2018-06-23T22:53:28.995Z,15.00
2018-06-23T22:55:57.232Z,15.10
2018-06-23T22:58:25.527Z,15.10
2018-06-23T23:00:54.892Z,15.10
2018-06-23T23:03:23.117Z,15.10
2018-06-23T23:05:51.360Z,15.10
2018-06-23T23:08:19.563Z,15.10
2018-06-23T23:10:47.778Z,15.20
2018-06-23T23:13:15.949Z,15.10
2018-06-23T23:15:44.141Z,15.10
2018-06-23T23:18:12.547Z,15.10
2018-06-23T23:20:40.891Z,15.10
2018-06-23T23:23:09.153Z,15.20
2018-06-23T23:25:37.633Z,15.10
2018-06-23T23:28:05.977Z,15.10
2018-06-23T23:30:34.173Z,15.10
2018-06-23T23:33:02.408Z,15.10
2018-06-23T23:35:30.669Z,15.10
2018-06-23T23:37:58.906Z,15.10
2018-06-23T23:40:27.175Z,15.20
2018-06-23T23:42:55.513Z,15.20
2018-06-23T23:45:23.722Z,15.10
2018-06-23T23:47:52.009Z,15.10
2018-06-23T23:50:20.244Z,15.10
2018-06-23T23:52:48.454Z,15.10
2018-06-23T23:55:17.311Z,15.10
2018-06-23T23:57:45.619Z,15.10
